sensor_id;sensor_type;location;lat;lon;timestamp;P1;durP1;ratioP1;P2;durP2;ratioP2
34585;SDS011;20816;50.950;11.108;2022-12-07T00:01:31;2.37;;;1.33;;
34585;SDS011;20816;50.950;11.108;2022-12-07T00:04:07;2.93;;;1.67;;
34585;SDS011;20816;50.950;11.108;2022-12-07T00:06:37;3.43;;;1.30;;
34585;SDS011;20816;50.950;11.108;2022-12-07T00:09:09;2.97;;;1.63;;
34585;SDS011;20816;50.950;11.108;2022-12-07T00:11:37;2.90;;;1.80;;
34585;SDS011;20816;50.950;11.108;2022-12-07T00:14:09;2.07;;;1.20;;
34585;SDS011;20816;50.950;11.108;2022-12-07T00:16:39;2.93;;;1.13;;
34585;SDS011;20816;50.950;11.108;2022-12-07T00:19:06;5.03;;;1.93;;
34585;SDS011;20816;50.950;11.108;2022-12-07T00:21:34;3.23;;;1.90;;
34585;SDS011;20816;50.950;11.108;2022-12-07T00:24:02;2.47;;;1.10;;
34585;SDS011;20816;50.950;11.108;2022-12-07T00:26:35;1.30;;;1.20;;
34585;SDS011;20816;50.950;11.108;2022-12-07T00:29:05;1.33;;;1.23;;
34585;SDS011;20816;50.950;11.108;2022-12-07T00:31:34;2.90;;;1.93;;
34585;SDS011;20816;50.950;11.108;2022-12-07T00:34:05;1.63;;;1.30;;
34585;SDS011;20816;50.950;11.108;2022-12-07T00:36:33;1.13;;;1.00;;
34585;SDS011;20816;50.950;11.108;2022-12-07T00:39:00;1.60;;;1.40;;
34585;SDS011;20816;50.950;11.108;2022-12-07T00:41:27;1.37;;;1.27;;
34585;SDS011;20816;50.950;11.108;2022-12-07T00:43:55;1.33;;;1.10;;
34585;SDS011;20816;50.950;11.108;2022-12-07T00:46:22;1.87;;;1.13;;
34585;SDS011;20816;50.950;11.108;2022-12-07T00:48:50;1.00;;;0.90;;
34585;SDS011;20816;50.950;11.108;2022-12-07T00:51:19;1.30;;;1.00;;
34585;SDS011;20816;50.950;11.108;2022-12-07T00:53:48;1.50;;;1.30;;
34585;SDS011;20816;50.950;11.108;2022-12-07T00:56:16;1.67;;;1.27;;
34585;SDS011;20816;50.950;11.108;2022-12-07T00:58:53;2.53;;;1.67;;
34585;SDS011;20816;50.950;11.108;2022-12-07T01:01:22;3.97;;;1.97;;
34585;SDS011;20816;50.950;11.108;2022-12-07T01:03:50;2.33;;;1.30;;
34585;SDS011;20816;50.950;11.108;2022-12-07T01:06:18;2.13;;;1.30;;
34585;SDS011;20816;50.950;11.108;2022-12-07T01:08:46;2.83;;;1.73;;
34585;SDS011;20816;50.950;11.108;2022-12-07T01:11:16;2.23;;;1.50;;
34585;SDS011;20816;50.950;11.108;2022-12-07T01:13:45;2.70;;;1.43;;
34585;SDS011;20816;50.950;11.108;2022-12-07T01:16:13;3.87;;;1.00;;
34585;SDS011;20816;50.950;11.108;2022-12-07T01:18:41;3.77;;;1.20;;
34585;SDS011;20816;50.950;11.108;2022-12-07T01:21:18;3.10;;;1.50;;
34585;SDS011;20816;50.950;11.108;2022-12-07T01:23:47;1.97;;;1.47;;
34585;SDS011;20816;50.950;11.108;2022-12-07T01:26:16;2.03;;;1.27;;
34585;SDS011;20816;50.950;11.108;2022-12-07T01:28:44;3.40;;;1.57;;
34585;SDS011;20816;50.950;11.108;2022-12-07T01:31:16;1.37;;;0.93;;
34585;SDS011;20816;50.950;11.108;2022-12-07T01:33:46;1.93;;;1.73;;
34585;SDS011;20816;50.950;11.108;2022-12-07T01:36:18;3.03;;;1.67;;
34585;SDS011;20816;50.950;11.108;2022-12-07T01:38:48;2.47;;;1.63;;
34585;SDS011;20816;50.950;11.108;2022-12-07T01:41:19;4.97;;;2.73;;
34585;SDS011;20816;50.950;11.108;2022-12-07T01:46:35;2.90;;;1.43;;
34585;SDS011;20816;50.950;11.108;2022-12-07T01:49:03;4.63;;;2.23;;
34585;SDS011;20816;50.950;11.108;2022-12-07T01:51:32;4.77;;;2.00;;
34585;SDS011;20816;50.950;11.108;2022-12-07T01:53:59;3.00;;;1.47;;
34585;SDS011;20816;50.950;11.108;2022-12-07T01:56:27;6.77;;;2.13;;
34585;SDS011;20816;50.950;11.108;2022-12-07T01:58:55;3.10;;;1.90;;
34585;SDS011;20816;50.950;11.108;2022-12-07T02:01:24;1.93;;;1.60;;
34585;SDS011;20816;50.950;11.108;2022-12-07T02:03:51;3.70;;;1.80;;
34585;SDS011;20816;50.950;11.108;2022-12-07T02:06:20;4.00;;;1.70;;
34585;SDS011;20816;50.950;11.108;2022-12-07T02:08:50;2.00;;;1.80;;
34585;SDS011;20816;50.950;11.108;2022-12-07T02:11:17;4.90;;;0.90;;
34585;SDS011;20816;50.950;11.108;2022-12-07T02:13:45;5.10;;;1.17;;
34585;SDS011;20816;50.950;11.108;2022-12-07T02:24:14;1.73;;;1.20;;
34585;SDS011;20816;50.950;11.108;2022-12-07T02:29:47;2.13;;;1.13;;
34585;SDS011;20816;50.950;11.108;2022-12-07T02:32:23;3.07;;;1.70;;
34585;SDS011;20816;50.950;11.108;2022-12-07T02:37:35;4.03;;;1.93;;
34585;SDS011;20816;50.950;11.108;2022-12-07T02:40:09;2.43;;;1.43;;
34585;SDS011;20816;50.950;11.108;2022-12-07T02:42:44;2.37;;;1.83;;
34585;SDS011;20816;50.950;11.108;2022-12-07T02:45:26;2.80;;;1.70;;
34585;SDS011;20816;50.950;11.108;2022-12-07T02:47:56;3.50;;;1.80;;
34585;SDS011;20816;50.950;11.108;2022-12-07T02:50:26;3.03;;;1.70;;
34585;SDS011;20816;50.950;11.108;2022-12-07T02:52:53;2.77;;;1.57;;
34585;SDS011;20816;50.950;11.108;2022-12-07T02:55:22;3.37;;;2.10;;
34585;SDS011;20816;50.950;11.108;2022-12-07T03:03:50;4.07;;;2.53;;
34585;SDS011;20816;50.950;11.108;2022-12-07T03:06:29;3.47;;;1.97;;
34585;SDS011;20816;50.950;11.108;2022-12-07T03:09:08;3.27;;;2.53;;
34585;SDS011;20816;50.950;11.108;2022-12-07T03:11:48;5.20;;;2.60;;
34585;SDS011;20816;50.950;11.108;2022-12-07T03:14:31;3.80;;;2.30;;
34585;SDS011;20816;50.950;11.108;2022-12-07T03:17:16;4.23;;;2.43;;
34585;SDS011;20816;50.950;11.108;2022-12-07T03:19:47;4.37;;;2.63;;
34585;SDS011;20816;50.950;11.108;2022-12-07T03:22:17;2.70;;;2.27;;
34585;SDS011;20816;50.950;11.108;2022-12-07T03:24:46;3.93;;;2.40;;
34585;SDS011;20816;50.950;11.108;2022-12-07T03:27:20;2.73;;;2.00;;
34585;SDS011;20816;50.950;11.108;2022-12-07T03:33:04;4.30;;;1.83;;
34585;SDS011;20816;50.950;11.108;2022-12-07T03:35:53;2.27;;;1.60;;
34585;SDS011;20816;50.950;11.108;2022-12-07T03:38:30;4.63;;;2.77;;
34585;SDS011;20816;50.950;11.108;2022-12-07T03:41:07;3.97;;;2.30;;
34585;SDS011;20816;50.950;11.108;2022-12-07T03:43:40;4.17;;;2.33;;
34585;SDS011;20816;50.950;11.108;2022-12-07T03:49:00;3.80;;;2.00;;
34585;SDS011;20816;50.950;11.108;2022-12-07T03:54:24;2.33;;;2.03;;
34585;SDS011;20816;50.950;11.108;2022-12-07T03:56:56;3.90;;;1.97;;
34585;SDS011;20816;50.950;11.108;2022-12-07T03:59:25;5.13;;;3.00;;
34585;SDS011;20816;50.950;11.108;2022-12-07T04:01:53;3.47;;;2.13;;
34585;SDS011;20816;50.950;11.108;2022-12-07T04:04:23;7.60;;;3.63;;
34585;SDS011;20816;50.950;11.108;2022-12-07T04:06:50;4.17;;;2.33;;
34585;SDS011;20816;50.950;11.108;2022-12-07T04:09:17;3.37;;;2.27;;
34585;SDS011;20816;50.950;11.108;2022-12-07T04:11:44;5.47;;;2.80;;
34585;SDS011;20816;50.950;11.108;2022-12-07T04:14:10;5.53;;;2.33;;
34585;SDS011;20816;50.950;11.108;2022-12-07T04:16:47;7.90;;;3.13;;
34585;SDS011;20816;50.950;11.108;2022-12-07T04:19:15;6.00;;;2.80;;
34585;SDS011;20816;50.950;11.108;2022-12-07T04:21:42;4.60;;;2.80;;
34585;SDS011;20816;50.950;11.108;2022-12-07T04:24:09;6.27;;;3.27;;
34585;SDS011;20816;50.950;11.108;2022-12-07T04:26:37;5.17;;;3.33;;
34585;SDS011;20816;50.950;11.108;2022-12-07T04:29:04;4.03;;;2.33;;
34585;SDS011;20816;50.950;11.108;2022-12-07T04:31:33;5.53;;;2.80;;
34585;SDS011;20816;50.950;11.108;2022-12-07T04:34:00;4.63;;;2.40;;
34585;SDS011;20816;50.950;11.108;2022-12-07T04:36:27;3.80;;;2.67;;
34585;SDS011;20816;50.950;11.108;2022-12-07T04:38:53;4.43;;;2.63;;
34585;SDS011;20816;50.950;11.108;2022-12-07T04:41:21;2.87;;;2.30;;
34585;SDS011;20816;50.950;11.108;2022-12-07T04:44:00;2.63;;;1.87;;
34585;SDS011;20816;50.950;11.108;2022-12-07T04:46:28;7.00;;;2.87;;
34585;SDS011;20816;50.950;11.108;2022-12-07T04:48:57;3.67;;;2.47;;
34585;SDS011;20816;50.950;11.108;2022-12-07T04:51:25;3.77;;;2.83;;
34585;SDS011;20816;50.950;11.108;2022-12-07T04:53:54;5.97;;;2.87;;
34585;SDS011;20816;50.950;11.108;2022-12-07T04:56:22;5.27;;;3.70;;
34585;SDS011;20816;50.950;11.108;2022-12-07T04:58:51;6.47;;;2.57;;
34585;SDS011;20816;50.950;11.108;2022-12-07T05:01:19;3.43;;;3.13;;
34585;SDS011;20816;50.950;11.108;2022-12-07T05:03:47;6.00;;;2.70;;
34585;SDS011;20816;50.950;11.108;2022-12-07T05:06:14;5.67;;;3.23;;
34585;SDS011;20816;50.950;11.108;2022-12-07T05:08:40;4.27;;;2.43;;
34585;SDS011;20816;50.950;11.108;2022-12-07T05:11:09;5.67;;;2.90;;
34585;SDS011;20816;50.950;11.108;2022-12-07T05:13:56;2.83;;;2.53;;
34585;SDS011;20816;50.950;11.108;2022-12-07T05:16:23;6.37;;;3.30;;
34585;SDS011;20816;50.950;11.108;2022-12-07T05:18:50;7.17;;;3.77;;
34585;SDS011;20816;50.950;11.108;2022-12-07T05:21:17;6.17;;;3.13;;
34585;SDS011;20816;50.950;11.108;2022-12-07T05:23:45;5.97;;;4.50;;
34585;SDS011;20816;50.950;11.108;2022-12-07T05:26:12;8.70;;;3.63;;
34585;SDS011;20816;50.950;11.108;2022-12-07T05:28:38;6.87;;;3.43;;
34585;SDS011;20816;50.950;11.108;2022-12-07T05:31:05;4.87;;;3.67;;
34585;SDS011;20816;50.950;11.108;2022-12-07T05:33:32;5.27;;;2.83;;
34585;SDS011;20816;50.950;11.108;2022-12-07T05:35:59;7.57;;;4.37;;
34585;SDS011;20816;50.950;11.108;2022-12-07T05:38:32;6.37;;;3.57;;
34585;SDS011;20816;50.950;11.108;2022-12-07T05:41:00;5.20;;;3.13;;
34585;SDS011;20816;50.950;11.108;2022-12-07T05:43:28;5.13;;;3.40;;
34585;SDS011;20816;50.950;11.108;2022-12-07T05:45:55;9.43;;;3.83;;
34585;SDS011;20816;50.950;11.108;2022-12-07T05:48:22;4.67;;;3.00;;
34585;SDS011;20816;50.950;11.108;2022-12-07T05:50:49;4.37;;;2.83;;
34585;SDS011;20816;50.950;11.108;2022-12-07T05:53:16;5.17;;;3.10;;
34585;SDS011;20816;50.950;11.108;2022-12-07T05:55:48;5.90;;;4.17;;
34585;SDS011;20816;50.950;11.108;2022-12-07T05:58:15;6.93;;;4.17;;
34585;SDS011;20816;50.950;11.108;2022-12-07T06:01:00;6.30;;;3.83;;
34585;SDS011;20816;50.950;11.108;2022-12-07T06:03:27;8.00;;;3.97;;
34585;SDS011;20816;50.950;11.108;2022-12-07T06:05:54;7.63;;;3.60;;
34585;SDS011;20816;50.950;11.108;2022-12-07T06:08:20;6.63;;;4.00;;
34585;SDS011;20816;50.950;11.108;2022-12-07T06:10:47;7.63;;;4.80;;
34585;SDS011;20816;50.950;11.108;2022-12-07T06:13:35;6.17;;;3.57;;
34585;SDS011;20816;50.950;11.108;2022-12-07T06:16:02;6.00;;;4.63;;
34585;SDS011;20816;50.950;11.108;2022-12-07T06:18:28;10.53;;;5.27;;
34585;SDS011;20816;50.950;11.108;2022-12-07T06:20:55;5.70;;;3.77;;
34585;SDS011;20816;50.950;11.108;2022-12-07T06:23:22;6.60;;;4.00;;
34585;SDS011;20816;50.950;11.108;2022-12-07T06:25:48;5.97;;;3.73;;
34585;SDS011;20816;50.950;11.108;2022-12-07T06:28:15;5.50;;;3.57;;
34585;SDS011;20816;50.950;11.108;2022-12-07T06:30:42;5.13;;;3.17;;
34585;SDS011;20816;50.950;11.108;2022-12-07T06:33:08;4.40;;;3.00;;
34585;SDS011;20816;50.950;11.108;2022-12-07T06:35:35;6.50;;;3.90;;
34585;SDS011;20816;50.950;11.108;2022-12-07T06:38:02;6.03;;;3.93;;
34585;SDS011;20816;50.950;11.108;2022-12-07T06:40:29;6.47;;;3.70;;
34585;SDS011;20816;50.950;11.108;2022-12-07T06:42:55;6.93;;;4.60;;
34585;SDS011;20816;50.950;11.108;2022-12-07T06:45:22;3.93;;;2.93;;
34585;SDS011;20816;50.950;11.108;2022-12-07T06:47:49;5.70;;;3.07;;
34585;SDS011;20816;50.950;11.108;2022-12-07T06:50:16;8.80;;;3.00;;
34585;SDS011;20816;50.950;11.108;2022-12-07T06:52:42;6.10;;;3.33;;
34585;SDS011;20816;50.950;11.108;2022-12-07T06:55:09;6.43;;;3.80;;
34585;SDS011;20816;50.950;11.108;2022-12-07T06:57:36;6.13;;;4.17;;
34585;SDS011;20816;50.950;11.108;2022-12-07T07:00:02;6.40;;;3.60;;
34585;SDS011;20816;50.950;11.108;2022-12-07T07:02:30;4.67;;;3.27;;
34585;SDS011;20816;50.950;11.108;2022-12-07T07:04:57;4.90;;;3.73;;
34585;SDS011;20816;50.950;11.108;2022-12-07T07:07:24;3.93;;;3.03;;
34585;SDS011;20816;50.950;11.108;2022-12-07T07:09:50;4.07;;;3.10;;
34585;SDS011;20816;50.950;11.108;2022-12-07T07:12:17;8.23;;;4.13;;
34585;SDS011;20816;50.950;11.108;2022-12-07T07:14:44;4.43;;;2.80;;
34585;SDS011;20816;50.950;11.108;2022-12-07T07:17:10;6.23;;;3.73;;
34585;SDS011;20816;50.950;11.108;2022-12-07T07:19:37;5.93;;;4.13;;
34585;SDS011;20816;50.950;11.108;2022-12-07T07:22:04;7.37;;;4.40;;
34585;SDS011;20816;50.950;11.108;2022-12-07T07:24:30;5.70;;;3.40;;
34585;SDS011;20816;50.950;11.108;2022-12-07T07:26:57;7.03;;;3.90;;
34585;SDS011;20816;50.950;11.108;2022-12-07T07:29:24;6.40;;;3.77;;
34585;SDS011;20816;50.950;11.108;2022-12-07T07:31:50;5.77;;;3.43;;
34585;SDS011;20816;50.950;11.108;2022-12-07T07:34:17;10.33;;;4.40;;
34585;SDS011;20816;50.950;11.108;2022-12-07T07:36:44;9.53;;;4.53;;
34585;SDS011;20816;50.950;11.108;2022-12-07T07:39:10;10.27;;;3.77;;
34585;SDS011;20816;50.950;11.108;2022-12-07T07:41:39;5.27;;;3.00;;
34585;SDS011;20816;50.950;11.108;2022-12-07T07:44:05;8.87;;;4.27;;
34585;SDS011;20816;50.950;11.108;2022-12-07T07:46:32;9.57;;;3.17;;
34585;SDS011;20816;50.950;11.108;2022-12-07T07:48:59;6.17;;;3.27;;
34585;SDS011;20816;50.950;11.108;2022-12-07T07:51:26;5.67;;;3.70;;
34585;SDS011;20816;50.950;11.108;2022-12-07T07:53:52;7.77;;;3.07;;
34585;SDS011;20816;50.950;11.108;2022-12-07T07:56:20;6.17;;;3.93;;
34585;SDS011;20816;50.950;11.108;2022-12-07T07:58:46;8.07;;;3.67;;
34585;SDS011;20816;50.950;11.108;2022-12-07T08:01:13;9.77;;;4.10;;
34585;SDS011;20816;50.950;11.108;2022-12-07T08:03:41;4.93;;;2.97;;
34585;SDS011;20816;50.950;11.108;2022-12-07T08:06:07;4.93;;;3.40;;
34585;SDS011;20816;50.950;11.108;2022-12-07T08:08:34;7.00;;;3.40;;
34585;SDS011;20816;50.950;11.108;2022-12-07T08:11:04;6.87;;;3.07;;
34585;SDS011;20816;50.950;11.108;2022-12-07T08:13:32;5.73;;;2.50;;
34585;SDS011;20816;50.950;11.108;2022-12-07T08:15:58;4.87;;;3.37;;
34585;SDS011;20816;50.950;11.108;2022-12-07T08:18:30;7.47;;;3.50;;
34585;SDS011;20816;50.950;11.108;2022-12-07T08:21:00;5.13;;;3.00;;
34585;SDS011;20816;50.950;11.108;2022-12-07T08:23:29;4.93;;;2.60;;
34585;SDS011;20816;50.950;11.108;2022-12-07T08:26:06;10.80;;;3.27;;
34585;SDS011;20816;50.950;11.108;2022-12-07T08:28:34;5.50;;;3.20;;
34585;SDS011;20816;50.950;11.108;2022-12-07T08:31:02;6.53;;;3.67;;
34585;SDS011;20816;50.950;11.108;2022-12-07T08:33:30;3.37;;;2.23;;
34585;SDS011;20816;50.950;11.108;2022-12-07T08:36:01;8.53;;;3.20;;
34585;SDS011;20816;50.950;11.108;2022-12-07T08:38:29;5.17;;;3.03;;
34585;SDS011;20816;50.950;11.108;2022-12-07T08:40:57;4.10;;;2.87;;
34585;SDS011;20816;50.950;11.108;2022-12-07T08:43:25;4.30;;;2.40;;
34585;SDS011;20816;50.950;11.108;2022-12-07T08:45:54;4.00;;;2.43;;
34585;SDS011;20816;50.950;11.108;2022-12-07T08:48:32;7.07;;;2.70;;
34585;SDS011;20816;50.950;11.108;2022-12-07T08:51:03;6.13;;;3.23;;
34585;SDS011;20816;50.950;11.108;2022-12-07T08:53:30;5.00;;;2.83;;
34585;SDS011;20816;50.950;11.108;2022-12-07T08:55:59;9.07;;;3.07;;
34585;SDS011;20816;50.950;11.108;2022-12-07T08:58:27;5.03;;;2.43;;
34585;SDS011;20816;50.950;11.108;2022-12-07T09:00:54;2.93;;;2.03;;
34585;SDS011;20816;50.950;11.108;2022-12-07T09:03:20;3.60;;;1.87;;
34585;SDS011;20816;50.950;11.108;2022-12-07T09:05:47;5.50;;;2.37;;
34585;SDS011;20816;50.950;11.108;2022-12-07T09:08:14;4.23;;;2.50;;
34585;SDS011;20816;50.950;11.108;2022-12-07T09:10:41;4.20;;;2.43;;
34585;SDS011;20816;50.950;11.108;2022-12-07T09:13:08;2.93;;;1.73;;
34585;SDS011;20816;50.950;11.108;2022-12-07T09:15:34;3.43;;;1.80;;
34585;SDS011;20816;50.950;11.108;2022-12-07T09:18:01;2.90;;;2.00;;
34585;SDS011;20816;50.950;11.108;2022-12-07T09:20:28;2.47;;;2.27;;
34585;SDS011;20816;50.950;11.108;2022-12-07T09:22:54;6.33;;;1.93;;
34585;SDS011;20816;50.950;11.108;2022-12-07T09:25:21;2.30;;;1.63;;
34585;SDS011;20816;50.950;11.108;2022-12-07T09:27:48;3.87;;;1.50;;
34585;SDS011;20816;50.950;11.108;2022-12-07T09:30:21;2.20;;;1.77;;
34585;SDS011;20816;50.950;11.108;2022-12-07T09:32:48;2.17;;;1.70;;
34585;SDS011;20816;50.950;11.108;2022-12-07T09:35:15;2.03;;;1.33;;
34585;SDS011;20816;50.950;11.108;2022-12-07T09:37:41;3.43;;;1.77;;
34585;SDS011;20816;50.950;11.108;2022-12-07T09:40:08;1.93;;;0.83;;
34585;SDS011;20816;50.950;11.108;2022-12-07T09:42:36;2.80;;;1.80;;
34585;SDS011;20816;50.950;11.108;2022-12-07T09:45:11;3.40;;;1.50;;
34585;SDS011;20816;50.950;11.108;2022-12-07T09:47:40;2.37;;;1.53;;
34585;SDS011;20816;50.950;11.108;2022-12-07T09:50:11;3.03;;;1.47;;
34585;SDS011;20816;50.950;11.108;2022-12-07T09:52:40;3.10;;;1.70;;
34585;SDS011;20816;50.950;11.108;2022-12-07T09:55:12;2.33;;;1.40;;
34585;SDS011;20816;50.950;11.108;2022-12-07T09:57:40;5.20;;;1.83;;
34585;SDS011;20816;50.950;11.108;2022-12-07T10:00:14;5.13;;;2.17;;
34585;SDS011;20816;50.950;11.108;2022-12-07T10:02:44;7.87;;;2.30;;
34585;SDS011;20816;50.950;11.108;2022-12-07T10:05:35;3.93;;;1.80;;
34585;SDS011;20816;50.950;11.108;2022-12-07T10:08:07;6.10;;;1.70;;
34585;SDS011;20816;50.950;11.108;2022-12-07T10:10:37;4.93;;;2.47;;
34585;SDS011;20816;50.950;11.108;2022-12-07T10:13:08;2.20;;;1.77;;
34585;SDS011;20816;50.950;11.108;2022-12-07T10:21:15;3.47;;;2.10;;
34585;SDS011;20816;50.950;11.108;2022-12-07T10:26:35;2.90;;;2.03;;
34585;SDS011;20816;50.950;11.108;2022-12-07T10:29:30;7.63;;;1.70;;
34585;SDS011;20816;50.950;11.108;2022-12-07T10:34:34;3.83;;;1.50;;
34585;SDS011;20816;50.950;11.108;2022-12-07T10:44:48;2.50;;;1.60;;
34585;SDS011;20816;50.950;11.108;2022-12-07T11:04:55;0.90;;;0.80;;
34585;SDS011;20816;50.950;11.108;2022-12-07T11:12:59;4.20;;;1.50;;
34585;SDS011;20816;50.950;11.108;2022-12-07T11:15:42;6.70;;;1.30;;
34585;SDS011;20816;50.950;11.108;2022-12-07T11:32:41;1.90;;;1.00;;
34585;SDS011;20816;50.950;11.108;2022-12-07T11:37:42;1.63;;;1.43;;
34585;SDS011;20816;50.950;11.108;2022-12-07T11:40:24;1.23;;;1.00;;
34585;SDS011;20816;50.950;11.108;2022-12-07T11:45:42;3.50;;;1.50;;
34585;SDS011;20816;50.950;11.108;2022-12-07T11:48:28;0.80;;;0.60;;
34585;SDS011;20816;50.950;11.108;2022-12-07T11:51:00;5.90;;;1.27;;
34585;SDS011;20816;50.950;11.108;2022-12-07T11:56:12;2.00;;;1.07;;
34585;SDS011;20816;50.950;11.108;2022-12-07T12:04:07;2.07;;;0.90;;
34585;SDS011;20816;50.950;11.108;2022-12-07T12:06:49;0.87;;;0.70;;
34585;SDS011;20816;50.950;11.108;2022-12-07T12:09:17;7.00;;;1.30;;
34585;SDS011;20816;50.950;11.108;2022-12-07T12:12:19;4.03;;;1.00;;
34585;SDS011;20816;50.950;11.108;2022-12-07T12:15:29;4.73;;;1.10;;
34585;SDS011;20816;50.950;11.108;2022-12-07T12:20:47;2.00;;;0.93;;
34585;SDS011;20816;50.950;11.108;2022-12-07T12:23:22;1.13;;;0.73;;
34585;SDS011;20816;50.950;11.108;2022-12-07T12:25:57;0.73;;;0.60;;
34585;SDS011;20816;50.950;11.108;2022-12-07T12:28:35;0.57;;;0.57;;
34585;SDS011;20816;50.950;11.108;2022-12-07T12:33:49;1.23;;;1.03;;
34585;SDS011;20816;50.950;11.108;2022-12-07T12:36:19;1.23;;;0.60;;
34585;SDS011;20816;50.950;11.108;2022-12-07T12:47:37;1.53;;;0.83;;
34585;SDS011;20816;50.950;11.108;2022-12-07T12:50:17;2.47;;;0.83;;
34585;SDS011;20816;50.950;11.108;2022-12-07T12:52:56;1.13;;;1.00;;
34585;SDS011;20816;50.950;11.108;2022-12-07T13:00:49;2.33;;;1.07;;
34585;SDS011;20816;50.950;11.108;2022-12-07T13:03:53;3.30;;;1.53;;
34585;SDS011;20816;50.950;11.108;2022-12-07T13:08:51;3.07;;;1.47;;
34585;SDS011;20816;50.950;11.108;2022-12-07T13:11:28;1.57;;;1.13;;
34585;SDS011;20816;50.950;11.108;2022-12-07T13:17:02;1.50;;;0.80;;
34585;SDS011;20816;50.950;11.108;2022-12-07T13:22:51;3.50;;;1.00;;
34585;SDS011;20816;50.950;11.108;2022-12-07T13:27:48;0.80;;;0.70;;
34585;SDS011;20816;50.950;11.108;2022-12-07T13:30:22;1.47;;;0.97;;
34585;SDS011;20816;50.950;11.108;2022-12-07T13:32:56;1.23;;;0.87;;
34585;SDS011;20816;50.950;11.108;2022-12-07T13:35:29;3.53;;;0.87;;
34585;SDS011;20816;50.950;11.108;2022-12-07T13:38:01;7.93;;;1.27;;
34585;SDS011;20816;50.950;11.108;2022-12-07T13:40:30;2.70;;;0.90;;
34585;SDS011;20816;50.950;11.108;2022-12-07T13:42:58;0.70;;;0.30;;
34585;SDS011;20816;50.950;11.108;2022-12-07T13:45:27;1.30;;;0.80;;
34585;SDS011;20816;50.950;11.108;2022-12-07T13:48:17;1.37;;;1.00;;
34585;SDS011;20816;50.950;11.108;2022-12-07T13:50:54;1.30;;;0.87;;
34585;SDS011;20816;50.950;11.108;2022-12-07T13:53:22;5.50;;;0.73;;
34585;SDS011;20816;50.950;11.108;2022-12-07T13:55:49;0.70;;;0.60;;
34585;SDS011;20816;50.950;11.108;2022-12-07T13:58:20;0.30;;;0.20;;
34585;SDS011;20816;50.950;11.108;2022-12-07T14:00:48;0.53;;;0.37;;
34585;SDS011;20816;50.950;11.108;2022-12-07T14:05:43;1.47;;;0.73;;
34585;SDS011;20816;50.950;11.108;2022-12-07T14:10:41;1.17;;;0.50;;
34585;SDS011;20816;50.950;11.108;2022-12-07T14:13:31;1.03;;;0.70;;
34585;SDS011;20816;50.950;11.108;2022-12-07T14:16:03;1.90;;;1.20;;
34585;SDS011;20816;50.950;11.108;2022-12-07T14:18:43;2.20;;;1.40;;
34585;SDS011;20816;50.950;11.108;2022-12-07T14:23:37;2.23;;;1.20;;
34585;SDS011;20816;50.950;11.108;2022-12-07T14:28:42;1.70;;;1.47;;
34585;SDS011;20816;50.950;11.108;2022-12-07T14:31:11;1.73;;;1.30;;
34585;SDS011;20816;50.950;11.108;2022-12-07T14:33:58;1.50;;;1.00;;
34585;SDS011;20816;50.950;11.108;2022-12-07T14:36:25;1.20;;;0.60;;
34585;SDS011;20816;50.950;11.108;2022-12-07T14:38:52;0.80;;;0.60;;
34585;SDS011;20816;50.950;11.108;2022-12-07T14:41:22;4.27;;;0.93;;
34585;SDS011;20816;50.950;11.108;2022-12-07T14:44:11;0.50;;;0.50;;
34585;SDS011;20816;50.950;11.108;2022-12-07T14:46:58;1.30;;;0.97;;
34585;SDS011;20816;50.950;11.108;2022-12-07T14:49:45;2.53;;;0.70;;
34585;SDS011;20816;50.950;11.108;2022-12-07T14:52:22;0.80;;;0.80;;
34585;SDS011;20816;50.950;11.108;2022-12-07T14:55:23;0.70;;;0.70;;
34585;SDS011;20816;50.950;11.108;2022-12-07T14:57:52;2.20;;;0.60;;
34585;SDS011;20816;50.950;11.108;2022-12-07T15:00:20;1.40;;;0.60;;
34585;SDS011;20816;50.950;11.108;2022-12-07T15:02:49;1.03;;;0.83;;
34585;SDS011;20816;50.950;11.108;2022-12-07T15:05:17;5.00;;;1.10;;
34585;SDS011;20816;50.950;11.108;2022-12-07T15:07:45;1.67;;;1.23;;
34585;SDS011;20816;50.950;11.108;2022-12-07T15:10:17;4.73;;;2.10;;
34585;SDS011;20816;50.950;11.108;2022-12-07T15:12:50;3.87;;;2.70;;
34585;SDS011;20816;50.950;11.108;2022-12-07T15:15:16;4.93;;;2.50;;
34585;SDS011;20816;50.950;11.108;2022-12-07T15:17:43;2.27;;;1.20;;
34585;SDS011;20816;50.950;11.108;2022-12-07T15:20:11;1.93;;;1.43;;
34585;SDS011;20816;50.950;11.108;2022-12-07T15:22:39;2.53;;;2.23;;
34585;SDS011;20816;50.950;11.108;2022-12-07T15:25:06;2.17;;;1.53;;
34585;SDS011;20816;50.950;11.108;2022-12-07T15:27:33;0.80;;;0.80;;
34585;SDS011;20816;50.950;11.108;2022-12-07T15:30:00;3.13;;;1.20;;
34585;SDS011;20816;50.950;11.108;2022-12-07T15:32:27;2.20;;;1.50;;
34585;SDS011;20816;50.950;11.108;2022-12-07T15:34:54;2.20;;;1.07;;
34585;SDS011;20816;50.950;11.108;2022-12-07T15:37:20;1.60;;;1.00;;
34585;SDS011;20816;50.950;11.108;2022-12-07T15:39:47;3.63;;;1.87;;
34585;SDS011;20816;50.950;11.108;2022-12-07T15:42:13;3.63;;;1.83;;
34585;SDS011;20816;50.950;11.108;2022-12-07T15:44:40;2.80;;;1.67;;
34585;SDS011;20816;50.950;11.108;2022-12-07T15:47:26;1.20;;;1.03;;
34585;SDS011;20816;50.950;11.108;2022-12-07T15:49:52;2.83;;;1.13;;
34585;SDS011;20816;50.950;11.108;2022-12-07T15:52:21;1.23;;;0.77;;
34585;SDS011;20816;50.950;11.108;2022-12-07T15:54:47;2.63;;;0.90;;
34585;SDS011;20816;50.950;11.108;2022-12-07T15:57:14;1.40;;;1.30;;
34585;SDS011;20816;50.950;11.108;2022-12-07T15:59:47;2.10;;;1.30;;
34585;SDS011;20816;50.950;11.108;2022-12-07T16:02:13;1.47;;;1.30;;
34585;SDS011;20816;50.950;11.108;2022-12-07T16:04:40;1.00;;;0.93;;
34585;SDS011;20816;50.950;11.108;2022-12-07T16:07:07;3.07;;;1.47;;
34585;SDS011;20816;50.950;11.108;2022-12-07T16:09:34;2.57;;;0.80;;
34585;SDS011;20816;50.950;11.108;2022-12-07T16:12:00;1.23;;;0.77;;
34585;SDS011;20816;50.950;11.108;2022-12-07T16:14:27;9.43;;;2.03;;
34585;SDS011;20816;50.950;11.108;2022-12-07T16:16:54;0.90;;;0.73;;
34585;SDS011;20816;50.950;11.108;2022-12-07T16:19:20;3.10;;;0.80;;
34585;SDS011;20816;50.950;11.108;2022-12-07T16:21:47;2.03;;;0.97;;
34585;SDS011;20816;50.950;11.108;2022-12-07T16:24:14;1.67;;;0.80;;
34585;SDS011;20816;50.950;11.108;2022-12-07T16:26:41;2.33;;;1.10;;
34585;SDS011;20816;50.950;11.108;2022-12-07T16:29:15;2.00;;;0.80;;
34585;SDS011;20816;50.950;11.108;2022-12-07T16:31:43;1.57;;;1.00;;
34585;SDS011;20816;50.950;11.108;2022-12-07T16:34:10;1.50;;;0.87;;
34585;SDS011;20816;50.950;11.108;2022-12-07T16:36:36;5.70;;;0.93;;
34585;SDS011;20816;50.950;11.108;2022-12-07T16:39:23;1.47;;;0.70;;
34585;SDS011;20816;50.950;11.108;2022-12-07T16:41:50;1.60;;;1.30;;
34585;SDS011;20816;50.950;11.108;2022-12-07T16:44:19;3.80;;;1.20;;
34585;SDS011;20816;50.950;11.108;2022-12-07T16:46:45;2.90;;;1.00;;
34585;SDS011;20816;50.950;11.108;2022-12-07T16:49:15;2.20;;;1.00;;
34585;SDS011;20816;50.950;11.108;2022-12-07T16:51:42;2.90;;;1.87;;
34585;SDS011;20816;50.950;11.108;2022-12-07T16:54:09;6.00;;;2.23;;
34585;SDS011;20816;50.950;11.108;2022-12-07T16:56:38;5.53;;;2.63;;
34585;SDS011;20816;50.950;11.108;2022-12-07T16:59:04;2.43;;;1.17;;
34585;SDS011;20816;50.950;11.108;2022-12-07T17:01:31;1.40;;;1.00;;
34585;SDS011;20816;50.950;11.108;2022-12-07T17:03:58;2.47;;;1.27;;
34585;SDS011;20816;50.950;11.108;2022-12-07T17:06:26;2.43;;;1.47;;
34585;SDS011;20816;50.950;11.108;2022-12-07T17:08:54;1.60;;;1.47;;
34585;SDS011;20816;50.950;11.108;2022-12-07T17:11:29;1.47;;;1.37;;
34585;SDS011;20816;50.950;11.108;2022-12-07T17:13:59;1.77;;;1.37;;